Time;durP1;ratioP1;P1;durP2;ratioP2;P2;SDS_P1;SDS_P2;PMS_P1;PMS_P2;Temp;Humidity;BMP_temperature;BMP_pressure;BME280_temperature;BME280_humidity;BME280_pressure;Samples;Min_cycle;Max_cycle;Signal;HPM_P1;HPM_P2
2022/02/07 00:02:15;;;;;;;1.20;0.23;;;4.90;99.90;;;;;;5093679;28;20298;-64
2022/02/07 00:04:45;;;;;;;1.50;0.20;;;4.90;99.90;;;;;;5093244;28;20715;-63
2022/02/07 00:07:16;;;;;;;1.77;0.20;;;4.80;99.90;;;;;;5093920;28;20208;-63
2022/02/07 00:09:44;;;;;;;2.63;0.40;;;4.80;99.90;;;;;;5093701;28;20231;-64
2022/02/07 00:12:12;;;;;;;0.40;0.20;;;4.90;99.90;;;;;;5093631;28;20204;-63
2022/02/07 00:14:38;;;;;;;0.40;0.13;;;4.90;99.90;;;;;;5093443;28;20224;-63
2022/02/07 00:17:06;;;;;;;0.20;0.20;;;4.90;99.90;;;;;;5093416;28;20207;-63
2022/02/07 00:19:33;;;;;;;1.27;0.23;;;5.00;99.90;;;;;;5093628;28;20228;-64
2022/02/07 00:22:00;;;;;;;0.97;0.60;;;5.20;99.90;;;;;;5095211;28;20204;-64
2022/02/07 00:24:27;;;;;;;0.77;0.30;;;5.20;99.90;;;;;;5098299;28;20313;-65
2022/02/07 00:26:55;;;;;;;1.90;0.30;;;5.30;99.90;;;;;;5098346;28;20227;-64
2022/02/07 00:29:22;;;;;;;0.03;0.03;;;5.30;99.90;;;;;;5096116;28;20207;-64
2022/02/07 00:31:48;;;;;;;1.07;0.17;;;5.40;99.90;;;;;;5093195;28;20208;-64
2022/02/07 00:34:15;;;;;;;0.67;0.17;;;5.50;99.90;;;;;;5093195;28;20205;-63
2022/02/07 00:36:42;;;;;;;0.93;0.20;;;5.50;99.90;;;;;;5093231;28;20664;-64
2022/02/07 00:39:15;;;;;;;2.10;0.47;;;5.60;99.90;;;;;;5093482;28;20246;-64
2022/02/07 00:41:46;;;;;;;0.67;0.27;;;5.70;99.90;;;;;;5093852;28;20208;-63
2022/02/07 00:44:16;;;;;;;3.23;0.40;;;5.70;99.90;;;;;;5105419;28;20204;-65
2022/02/07 00:46:50;;;;;;;1.33;0.10;;;5.60;99.90;;;;;;5101179;28;20207;-64
2022/02/07 00:49:17;;;;;;;1.17;0.20;;;5.60;99.90;;;;;;5094021;28;20228;-64
2022/02/07 00:51:43;;;;;;;1.67;0.47;;;5.70;99.90;;;;;;5094041;28;20249;-64
2022/02/07 00:54:10;;;;;;;1.27;0.20;;;5.70;99.90;;;;;;5092574;28;20249;-64
2022/02/07 00:56:37;;;;;;;1.30;0.27;;;5.70;99.90;;;;;;5092602;28;20208;-64
2022/02/07 00:59:04;;;;;;;0.70;0.30;;;5.80;99.90;;;;;;5092429;28;20729;-64
2022/02/07 01:01:32;;;;;;;1.60;0.50;;;5.80;99.90;;;;;;5092820;28;20208;-64
2022/02/07 01:03:59;;;;;;;1.07;0.20;;;6.00;99.90;;;;;;5092266;28;20214;-64
2022/02/07 01:06:26;;;;;;;0.60;0.20;;;6.10;99.90;;;;;;5092289;28;20220;-65
2022/02/07 01:09:06;;;;;;;0.20;0.20;;;6.10;99.90;;;;;;5092642;28;20204;-65
2022/02/07 01:11:47;;;;;;;0.87;0.33;;;6.10;99.90;;;;;;5092589;28;20200;-63
2022/02/07 01:14:25;;;;;;;0.33;0.23;;;6.00;99.90;;;;;;5093236;28;20640;-64
2022/02/07 01:17:38;;;;;;;0.70;0.27;;;6.00;99.90;;;;;;5094770;28;20253;-63
2022/02/07 01:20:09;;;;;;;1.70;0.30;;;6.00;99.90;;;;;;5093559;28;20224;-64
2022/02/07 01:22:58;;;;;;;0.53;0.30;;;5.90;99.90;;;;;;5092817;28;20204;-64
2022/02/07 01:47:47;;;;;;;0.70;0.23;;;5.90;99.90;;;;;;5095868;28;20207;-63
2022/02/07 01:50:51;;;;;;;0.93;0.13;;;6.00;99.90;;;;;;5099577;28;20635;-64
2022/02/07 01:53:29;;;;;;;1.27;0.10;;;5.90;99.90;;;;;;5097552;28;20243;-63
2022/02/07 01:55:58;;;;;;;0.40;0.10;;;5.90;99.90;;;;;;5099428;28;20239;-63
2022/02/07 01:58:25;;;;;;;0.53;0.20;;;6.00;99.90;;;;;;5096608;28;20299;-64
2022/02/07 02:00:52;;;;;;;0.90;0.30;;;6.00;99.90;;;;;;5095048;28;20228;-63
2022/02/07 02:03:20;;;;;;;0.20;0.20;;;6.10;99.90;;;;;;5096308;28;20676;-63
2022/02/07 02:05:48;;;;;;;0.20;0.20;;;6.00;99.90;;;;;;5092417;28;20250;-63
2022/02/07 02:08:16;;;;;;;0.27;0.23;;;6.00;99.90;;;;;;5092438;28;20212;-63
2022/02/07 02:10:45;;;;;;;0.70;0.30;;;6.10;99.90;;;;;;5092039;28;20208;-62
2022/02/07 02:13:16;;;;;;;0.50;0.17;;;6.10;99.90;;;;;;5091466;28;20258;-63
2022/02/07 02:15:49;;;;;;;0.43;0.30;;;6.20;99.90;;;;;;5091844;28;20228;-64
2022/02/07 02:19:01;;;;;;;1.27;0.27;;;6.10;99.90;;;;;;5092818;28;20228;-63
2022/02/07 02:38:08;;;;;;;1.57;0.50;;;5.50;99.90;;;;;;5089792;28;20199;-64
2022/02/07 02:46:04;;;;;;;0.33;0.30;;;5.60;99.90;;;;;;5096569;28;20310;-64
2022/02/07 02:48:34;;;;;;;0.67;0.50;;;5.60;99.90;;;;;;5101208;28;20236;-64
2022/02/07 02:51:07;;;;;;;2.33;0.90;;;5.70;99.90;;;;;;5094792;28;20258;-64
2022/02/07 02:53:34;;;;;;;1.40;0.57;;;5.60;99.90;;;;;;5094660;28;20690;-64
2022/02/07 02:56:02;;;;;;;1.53;0.60;;;5.60;99.90;;;;;;5117494;22;20224;-60
2022/02/07 02:58:29;;;;;;;1.73;0.63;;;5.60;99.90;;;;;;5086690;28;20211;-57
2022/02/07 03:00:56;;;;;;;3.83;0.60;;;5.70;99.90;;;;;;5094240;28;20228;-57
2022/02/07 03:03:23;;;;;;;2.10;0.70;;;5.60;99.90;;;;;;5094117;28;20227;-57
2022/02/07 03:05:51;;;;;;;2.03;0.67;;;5.60;99.90;;;;;;5094071;28;20730;-58
2022/02/07 03:08:19;;;;;;;1.83;0.67;;;5.60;99.90;;;;;;5094475;28;20286;-57
2022/02/07 03:10:56;;;;;;;2.23;0.47;;;5.50;99.90;;;;;;5094310;28;20208;-58
2022/02/07 03:18:52;;;;;;;1.10;0.57;;;5.10;99.90;;;;;;5094018;28;20203;-58
2022/02/07 03:21:19;;;;;;;3.40;1.00;;;5.10;99.90;;;;;;5093946;28;20675;-58
2022/02/07 03:23:46;;;;;;;3.40;1.00;;;5.00;99.90;;;;;;5094108;28;20273;-58
2022/02/07 03:26:14;;;;;;;1.10;0.77;;;4.90;99.90;;;;;;5093932;28;20220;-58
2022/02/07 03:28:42;;;;;;;2.10;0.53;;;4.80;99.90;;;;;;5093361;28;20258;-58
2022/02/07 03:31:09;;;;;;;2.33;0.67;;;4.90;99.90;;;;;;5093859;28;20285;-57
2022/02/07 03:33:37;;;;;;;1.00;0.37;;;4.90;99.90;;;;;;5093585;28;20208;-58
2022/02/07 03:36:05;;;;;;;2.70;0.67;;;5.00;99.90;;;;;;5093664;28;20319;-58
2022/02/07 03:38:32;;;;;;;2.10;0.40;;;5.00;99.90;;;;;;5093685;28;20204;-57
2022/02/07 03:40:59;;;;;;;2.13;0.60;;;5.10;99.90;;;;;;5093643;28;20233;-57
2022/02/07 03:43:25;;;;;;;1.27;0.60;;;5.10;99.90;;;;;;5093252;28;20216;-57
2022/02/07 03:45:53;;;;;;;1.00;0.57;;;5.00;99.90;;;;;;5093563;28;20228;-57
2022/02/07 03:48:20;;;;;;;2.30;0.63;;;5.00;99.90;;;;;;5093697;28;20204;-58
2022/02/07 03:50:47;;;;;;;0.53;0.30;;;4.80;99.90;;;;;;5093495;28;20253;-57
2022/02/07 03:53:14;;;;;;;0.83;0.30;;;4.70;99.90;;;;;;5093092;28;20600;-57
2022/02/07 03:55:41;;;;;;;1.50;0.50;;;4.60;99.90;;;;;;5093078;28;20297;-58
2022/02/07 03:58:08;;;;;;;1.70;0.30;;;4.50;99.90;;;;;;5093138;28;21376;-57
2022/02/07 04:00:36;;;;;;;0.67;0.30;;;4.40;99.90;;;;;;5093394;28;20228;-57
2022/02/07 04:03:08;;;;;;;2.03;0.40;;;4.40;99.90;;;;;;5093479;28;20200;-57
2022/02/07 04:05:44;;;;;;;0.93;0.17;;;4.30;99.90;;;;;;5093170;28;20228;-57
2022/02/07 04:08:12;;;;;;;0.90;0.43;;;4.20;99.90;;;;;;5093321;28;20204;-57
2022/02/07 04:10:51;;;;;;;0.57;0.30;;;4.10;99.90;;;;;;5092965;28;20296;-57
2022/02/07 04:13:24;;;;;;;2.07;0.50;;;4.10;99.90;;;;;;5093182;28;20204;-57
2022/02/07 04:15:52;;;;;;;1.27;0.20;;;4.00;99.90;;;;;;5092950;28;20234;-57
2022/02/07 04:18:20;;;;;;;0.63;0.30;;;4.00;99.90;;;;;;5093033;28;20215;-57
2022/02/07 04:20:47;;;;;;;1.27;0.40;;;3.90;99.90;;;;;;5092837;28;20220;-57
2022/02/07 04:23:14;;;;;;;0.60;0.30;;;3.90;99.90;;;;;;5092575;28;20208;-58
2022/02/07 04:25:41;;;;;;;1.03;0.53;;;3.90;99.90;;;;;;5093197;28;20231;-58
2022/02/07 04:28:07;;;;;;;0.33;0.23;;;3.70;99.90;;;;;;5093837;28;20609;-57
2022/02/07 04:30:34;;;;;;;0.57;0.17;;;3.60;99.90;;;;;;5093635;28;20250;-56
2022/02/07 04:33:01;;;;;;;0.57;0.20;;;3.50;99.90;;;;;;5093065;28;20200;-58
2022/02/07 04:35:29;;;;;;;1.47;0.47;;;3.40;99.90;;;;;;5092521;28;20228;-57
2022/02/07 04:37:56;;;;;;;1.33;0.60;;;3.40;99.90;;;;;;5092854;28;20215;-56
2022/02/07 04:40:23;;;;;;;1.37;0.50;;;3.40;99.90;;;;;;5092610;28;20634;-55
2022/02/07 04:42:49;;;;;;;0.97;0.40;;;3.50;99.90;;;;;;5092311;28;20211;-56
2022/02/07 04:45:32;;;;;;;0.97;0.47;;;3.50;99.90;;;;;;5092648;28;20781;-56
2022/02/07 04:48:22;;;;;;;2.70;0.70;;;3.60;99.90;;;;;;5092868;28;20728;-57
2022/02/07 04:51:05;;;;;;;0.90;0.40;;;3.80;99.90;;;;;;5092803;28;20223;-58
2022/02/07 04:53:51;;;;;;;0.77;0.30;;;4.00;99.90;;;;;;5092364;28;20207;-55
2022/02/07 04:57:00;;;;;;;1.40;0.50;;;4.10;99.90;;;;;;5091920;28;20236;-57
2022/02/07 04:59:09;;;;;;;2.50;0.33;;;4.20;99.90;;;;;;5092180;28;20296;-56
2022/02/07 05:01:45;;;;;;;0.63;0.40;;;4.10;99.90;;;;;;5092380;28;20227;-56
2022/02/07 05:04:23;;;;;;;1.73;0.50;;;4.20;99.90;;;;;;5092006;28;20215;-56
2022/02/07 05:15:04;;;;;;;1.93;0.70;;;4.60;99.90;;;;;;5091763;28;20722;-57
2022/02/07 05:17:32;;;;;;;2.03;0.60;;;4.70;99.90;;;;;;5092224;28;20212;-57
2022/02/07 05:19:59;;;;;;;1.30;0.50;;;4.70;99.90;;;;;;5092085;28;20227;-58
2022/02/07 05:22:30;;;;;;;2.10;0.50;;;4.70;99.90;;;;;;5092225;28;20613;-57
2022/02/07 05:24:57;;;;;;;2.23;0.60;;;4.60;99.90;;;;;;5091864;28;20220;-59
2022/02/07 05:27:24;;;;;;;1.50;0.53;;;4.50;99.90;;;;;;5092005;28;20262;-58
2022/02/07 05:29:51;;;;;;;2.23;0.87;;;4.40;99.90;;;;;;5091816;28;20200;-58
2022/02/07 05:32:18;;;;;;;2.40;0.87;;;4.30;99.90;;;;;;5091901;28;20219;-58
2022/02/07 05:34:44;;;;;;;3.03;1.40;;;4.20;99.90;;;;;;5091706;28;20207;-58
2022/02/07 05:37:13;;;;;;;4.17;0.83;;;4.10;99.90;;;;;;5091599;28;20254;-56
2022/02/07 05:39:44;;;;;;;2.73;0.70;;;4.30;99.90;;;;;;5091648;28;20200;-58
2022/02/07 05:42:11;;;;;;;3.17;0.60;;;4.30;99.90;;;;;;5091749;28;20208;-58
2022/02/07 05:44:39;;;;;;;2.07;0.70;;;4.40;99.90;;;;;;5091453;28;20283;-56
2022/02/07 05:47:06;;;;;;;2.80;0.80;;;4.30;99.90;;;;;;5091546;28;20733;-56
2022/02/07 05:49:34;;;;;;;1.93;0.60;;;4.40;99.90;;;;;;5091762;28;20215;-57
2022/02/07 05:52:00;;;;;;;4.60;1.00;;;4.30;99.90;;;;;;5092271;28;20583;-57
2022/02/07 05:54:27;;;;;;;2.27;0.80;;;4.30;99.90;;;;;;5095525;28;20566;-57
2022/02/07 05:56:55;;;;;;;3.80;0.90;;;4.10;99.90;;;;;;5095370;28;20232;-57
2022/02/07 05:59:22;;;;;;;4.93;1.37;;;4.00;99.90;;;;;;5095568;28;20204;-57
2022/02/07 06:01:49;;;;;;;5.10;1.10;;;3.90;99.90;;;;;;5095354;28;20220;-57
2022/02/07 06:04:15;;;;;;;5.00;0.97;;;3.90;99.90;;;;;;5095238;28;20630;-57
2022/02/07 06:06:42;;;;;;;5.90;1.10;;;3.70;99.90;;;;;;5095421;28;20352;-56
2022/02/07 06:09:09;;;;;;;2.23;1.33;;;3.70;99.90;;;;;;5095464;28;20204;-56
2022/02/07 06:11:36;;;;;;;4.97;1.60;;;3.50;99.90;;;;;;5095202;28;20204;-56
2022/02/07 06:14:04;;;;;;;3.10;1.20;;;3.50;99.90;;;;;;5094920;28;20200;-56
2022/02/07 06:16:32;;;;;;;5.43;1.37;;;3.50;99.90;;;;;;5094945;28;20236;-56
2022/02/07 06:19:01;;;;;;;3.03;1.73;;;3.60;99.90;;;;;;5095081;28;20204;-56
2022/02/07 06:21:31;;;;;;;4.37;1.30;;;3.80;99.90;;;;;;5095056;28;20707;-56
2022/02/07 06:23:58;;;;;;;1.63;0.73;;;3.90;99.90;;;;;;5094896;28;20592;-56
2022/02/07 06:26:25;;;;;;;5.90;1.60;;;4.00;99.90;;;;;;5095195;28;20249;-56
2022/02/07 06:28:51;;;;;;;4.63;1.20;;;4.20;99.90;;;;;;5095350;28;20219;-56
2022/02/07 06:31:19;;;;;;;5.10;1.40;;;4.30;99.90;;;;;;5095080;28;20283;-56
2022/02/07 06:33:46;;;;;;;8.37;1.40;;;4.40;99.90;;;;;;5094797;28;20211;-57
2022/02/07 06:36:13;;;;;;;3.13;1.30;;;4.50;99.90;;;;;;5094592;28;20297;-56
2022/02/07 06:38:40;;;;;;;8.60;1.30;;;4.60;99.90;;;;;;5095080;28;20215;-57
2022/02/07 06:41:07;;;;;;;4.87;1.40;;;4.50;99.90;;;;;;5095097;28;20221;-56
2022/02/07 06:43:33;;;;;;;3.83;1.43;;;4.60;99.90;;;;;;5095242;28;20216;-56
2022/02/07 06:46:00;;;;;;;6.40;1.37;;;4.50;99.90;;;;;;5095597;28;20224;-58
2022/02/07 06:48:28;;;;;;;3.57;1.43;;;4.50;99.90;;;;;;5095042;28;20208;-57
2022/02/07 06:50:55;;;;;;;5.97;1.53;;;4.40;99.90;;;;;;5094679;28;20207;-57
2022/02/07 06:53:22;;;;;;;5.80;1.27;;;4.30;99.90;;;;;;5094729;28;20605;-56
2022/02/07 06:55:49;;;;;;;4.90;1.40;;;4.40;99.90;;;;;;5094092;28;20258;-56
2022/02/07 06:58:15;;;;;;;4.97;1.60;;;4.50;99.90;;;;;;5094435;28;20204;-56
2022/02/07 07:00:42;;;;;;;8.63;3.33;;;4.50;99.90;;;;;;5094203;28;20560;-58
2022/02/07 07:03:14;;;;;;;5.17;2.47;;;4.60;99.90;;;;;;5093913;28;20597;-56
2022/02/07 07:05:42;;;;;;;6.87;1.80;;;4.80;99.90;;;;;;5093281;28;20326;-56
2022/02/07 07:08:09;;;;;;;2.10;1.13;;;4.90;99.90;;;;;;5094471;28;20204;-56
2022/02/07 07:10:36;;;;;;;7.87;2.17;;;5.00;99.90;;;;;;5094228;28;20594;-56
2022/02/07 07:13:09;;;;;;;6.07;1.80;;;5.00;99.90;;;;;;5094069;28;20200;-56
2022/02/07 07:15:42;;;;;;;4.77;1.70;;;5.10;99.90;;;;;;5093928;28;20235;-56
2022/02/07 07:18:09;;;;;;;2.90;1.03;;;5.20;99.90;;;;;;5094127;28;20208;-56
2022/02/07 07:20:36;;;;;;;2.87;1.33;;;5.20;99.90;;;;;;5094058;28;20285;-56
2022/02/07 07:23:05;;;;;;;4.60;2.20;;;5.20;99.90;;;;;;5093938;28;20212;-56
2022/02/07 07:25:32;;;;;;;2.50;1.57;;;5.30;99.90;;;;;;5093465;28;20227;-57
2022/02/07 07:28:02;;;;;;;2.33;1.07;;;5.30;99.90;;;;;;5093593;28;20590;-57
2022/02/07 07:30:33;;;;;;;5.37;1.43;;;5.10;99.90;;;;;;5093681;28;20204;-56
2022/02/07 07:33:04;;;;;;;5.80;1.30;;;5.00;99.90;;;;;;5093824;28;20208;-57
2022/02/07 07:35:31;;;;;;;4.60;1.07;;;4.90;99.90;;;;;;5093594;28;20267;-57
2022/02/07 07:37:58;;;;;;;6.60;2.17;;;4.80;99.90;;;;;;5093114;28;20664;-57
2022/02/07 07:40:26;;;;;;;6.87;1.77;;;4.80;99.90;;;;;;5093250;28;20702;-56
2022/02/07 07:42:54;;;;;;;3.30;1.30;;;4.80;99.90;;;;;;5093398;28;20208;-56
2022/02/07 07:45:26;;;;;;;4.37;1.57;;;4.70;99.90;;;;;;5093184;28;20240;-56
2022/02/07 07:47:58;;;;;;;6.97;1.37;;;4.70;99.90;;;;;;5093306;28;20207;-57
2022/02/07 07:50:30;;;;;;;4.93;1.30;;;4.80;99.90;;;;;;5093506;28;20204;-57
2022/02/07 07:53:07;;;;;;;5.17;1.50;;;5.00;99.90;;;;;;5093139;28;20243;-56
2022/02/07 08:03:49;;;;;;;5.43;1.53;;;5.60;99.90;;;;;;5092773;28;20202;-57
2022/02/07 08:06:19;;;;;;;5.03;1.27;;;5.60;99.90;;;;;;5093262;28;20286;-57
2022/02/07 08:08:49;;;;;;;7.73;1.77;;;5.50;99.90;;;;;;5093710;28;20208;-58
2022/02/07 08:11:19;;;;;;;3.33;1.33;;;5.60;99.90;;;;;;5093520;28;20204;-56
2022/02/07 08:13:46;;;;;;;7.00;1.53;;;5.60;99.90;;;;;;5093351;28;20323;-57
2022/02/07 08:16:13;;;;;;;6.83;1.70;;;5.70;99.90;;;;;;5092668;28;20715;-57
2022/02/07 08:18:39;;;;;;;11.03;2.10;;;5.80;99.90;;;;;;5092737;28;20287;-57
2022/02/07 08:21:06;;;;;;;12.83;1.87;;;5.90;99.90;;;;;;5092932;28;20315;-59
2022/02/07 08:23:35;;;;;;;6.03;1.50;;;6.00;99.90;;;;;;5092918;28;20204;-57
2022/02/07 08:26:03;;;;;;;8.23;2.00;;;6.10;99.90;;;;;;5092704;28;20223;-56
2022/02/07 08:28:31;;;;;;;6.17;1.47;;;6.20;99.90;;;;;;5093616;28;20208;-57
2022/02/07 08:30:58;;;;;;;5.80;1.60;;;6.30;99.90;;;;;;5093925;28;20200;-57
2022/02/07 08:33:25;;;;;;;2.70;1.30;;;6.40;99.90;;;;;;5093453;28;20211;-57
2022/02/07 08:35:52;;;;;;;9.93;1.83;;;6.50;99.90;;;;;;5092678;28;20220;-57
2022/02/07 08:38:19;;;;;;;18.93;2.63;;;6.60;99.90;;;;;;5092833;28;20533;-57
2022/02/07 08:40:46;;;;;;;6.40;1.93;;;6.60;99.90;;;;;;5092299;28;20206;-58
2022/02/07 08:43:13;;;;;;;18.17;2.80;;;6.60;99.90;;;;;;5092200;28;20200;-59
2022/02/07 08:45:42;;;;;;;6.03;1.50;;;6.60;99.90;;;;;;5091800;28;20248;-57
2022/02/07 08:48:10;;;;;;;5.90;1.63;;;6.70;99.90;;;;;;5092349;28;20253;-58
2022/02/07 08:50:38;;;;;;;5.57;1.77;;;6.80;99.90;;;;;;5092112;28;20204;-57
2022/02/07 08:53:06;;;;;;;4.90;1.53;;;6.90;99.90;;;;;;5092463;28;20228;-57
2022/02/07 08:55:33;;;;;;;3.63;1.10;;;7.10;99.90;;;;;;5098253;22;20225;-64
2022/02/07 08:58:07;;;;;;;7.17;1.70;;;7.10;99.90;;;;;;5060038;28;20197;-64
2022/02/07 09:00:45;;;;;;;5.83;1.57;;;7.10;99.90;;;;;;5032248;28;20214;-63
2022/02/07 09:03:28;;;;;;;9.03;2.37;;;7.20;99.90;;;;;;5032108;28;20301;-63
2022/02/07 09:11:20;;;;;;;6.23;1.93;;;7.20;99.90;;;;;;5031691;28;20605;-63
2022/02/07 09:13:48;;;;;;;6.40;2.27;;;7.20;99.90;;;;;;5032128;28;20202;-64
2022/02/07 09:16:23;;;;;;;5.17;1.27;;;7.20;99.90;;;;;;5031957;28;20234;-64
2022/02/07 09:18:51;;;;;;;6.33;2.00;;;7.20;99.90;;;;;;5032121;28;20582;-64
2022/02/07 09:21:18;;;;;;;6.13;1.70;;;7.30;99.90;;;;;;5032339;28;20591;-65
2022/02/07 09:23:45;;;;;;;6.13;1.97;;;7.30;99.90;;;;;;5032075;28;20206;-64
2022/02/07 09:26:13;;;;;;;3.57;1.07;;;7.40;99.90;;;;;;5031669;28;20592;-64
2022/02/07 09:28:41;;;;;;;7.97;1.43;;;7.50;99.90;;;;;;5035380;28;20240;-63
2022/02/07 09:31:08;;;;;;;5.13;1.13;;;7.60;99.90;;;;;;5035954;28;20202;-63
2022/02/07 09:33:35;;;;;;;8.17;1.60;;;7.70;99.90;;;;;;5035608;28;20217;-63
2022/02/07 09:36:04;;;;;;;5.50;1.40;;;7.80;99.90;;;;;;5035561;28;20236;-63
2022/02/07 09:38:32;;;;;;;4.27;1.37;;;7.80;99.90;;;;;;5036007;28;20207;-64
2022/02/07 09:41:00;;;;;;;4.83;1.60;;;7.80;99.90;;;;;;5035769;28;20210;-64
2022/02/07 09:43:32;;;;;;;4.90;1.73;;;7.90;99.90;;;;;;5035847;28;20206;-63
2022/02/07 09:46:05;;;;;;;3.13;1.50;;;8.10;99.90;;;;;;5035446;28;20768;-63
2022/02/07 09:48:33;;;;;;;5.37;1.33;;;8.30;99.90;;;;;;5035679;28;20214;-63
2022/02/07 09:51:00;;;;;;;4.97;1.57;;;8.30;99.90;;;;;;5035344;28;20584;-64
2022/02/07 09:53:30;;;;;;;5.97;1.70;;;8.30;99.90;;;;;;5035359;28;20206;-63
2022/02/07 09:55:57;;;;;;;9.43;1.80;;;8.50;99.90;;;;;;5034924;28;20307;-64
2022/02/07 09:58:24;;;;;;;28.40;3.93;;;8.50;99.90;;;;;;5035116;28;20214;-63
2022/02/07 10:00:51;;;;;;;9.73;1.37;;;8.40;99.90;;;;;;5035450;28;20213;-63
2022/02/07 10:03:22;;;;;;;6.77;1.63;;;8.40;99.90;;;;;;5036136;28;20251;-64
2022/02/07 10:05:52;;;;;;;7.17;1.50;;;8.50;99.90;;;;;;5034874;28;20245;-64
2022/02/07 10:08:35;;;;;;;6.90;1.30;;;8.50;99.90;;;;;;5035230;28;20263;-63
2022/02/07 10:11:19;;;;;;;7.57;3.80;;;8.50;99.90;;;;;;5034924;28;20214;-65
2022/02/07 10:13:54;;;;;;;5.07;1.50;;;8.40;99.90;;;;;;5035222;28;20261;-63
2022/02/07 10:16:34;;;;;;;3.80;1.30;;;8.40;99.90;;;;;;5035059;28;20315;-65
2022/02/07 10:19:21;;;;;;;6.33;1.97;;;8.30;99.90;;;;;;5034707;28;20214;-63
2022/02/07 10:22:14;;;;;;;6.47;1.93;;;8.30;99.90;;;;;;5034957;28;20230;-65
2022/02/07 10:36:15;;;;;;;5.47;1.60;;;8.20;99.90;;;;;;5034134;28;20603;-62
2022/02/07 10:39:01;;;;;;;6.70;1.43;;;8.20;99.90;;;;;;5033314;28;20211;-62
2022/02/07 10:41:40;;;;;;;5.23;1.40;;;8.40;99.90;;;;;;5034355;28;20316;-62
2022/02/07 10:44:32;;;;;;;5.97;2.13;;;8.50;99.90;;;;;;5033850;28;20206;-62
2022/02/07 10:47:05;;;;;;;5.17;1.50;;;8.90;99.90;;;;;;5034224;28;20261;-62
2022/02/07 10:49:32;;;;;;;5.10;1.90;;;9.10;99.90;;;;;;5034124;28;20666;-63
2022/02/07 10:52:00;;;;;;;6.70;1.70;;;9.10;99.90;;;;;;5034584;28;20560;-62
2022/02/07 10:54:27;;;;;;;6.30;1.60;;;9.00;99.90;;;;;;5033929;28;20202;-62
2022/02/07 10:56:55;;;;;;;6.40;1.97;;;9.10;99.90;;;;;;5033889;28;20244;-62
2022/02/07 10:59:22;;;;;;;5.50;1.47;;;9.10;99.90;;;;;;5034247;28;20210;-61
2022/02/07 11:04:40;;;;;;;4.03;1.50;;;9.10;99.90;;;;;;5033782;28;20309;-62
2022/02/07 11:07:10;;;;;;;3.47;1.50;;;9.00;99.90;;;;;;5033955;28;20318;-63
2022/02/07 11:09:41;;;;;;;8.70;1.77;;;8.90;99.90;;;;;;5034251;28;20206;-62
2022/02/07 11:12:42;;;;;;;4.87;1.57;;;8.80;99.90;;;;;;5033836;28;20206;-62
2022/02/07 11:15:20;;;;;;;6.80;1.77;;;8.60;99.90;;;;;;5033309;28;20591;-62
2022/02/07 11:18:00;;;;;;;4.27;1.60;;;8.50;99.90;;;;;;5033444;28;20751;-60
2022/02/07 11:20:49;;;;;;;5.30;1.57;;;8.40;99.90;;;;;;5033780;28;20205;-61
2022/02/07 11:23:33;;;;;;;8.90;2.07;;;8.30;99.90;;;;;;5033580;28;20236;-62
2022/02/07 11:26:04;;;;;;;5.70;1.40;;;8.30;99.90;;;;;;5033155;28;20324;-63
2022/02/07 11:28:39;;;;;;;4.77;1.83;;;8.30;99.90;;;;;;5033708;28;20301;-63
2022/02/07 11:31:08;;;;;;;4.80;1.40;;;8.40;99.90;;;;;;5034010;28;20206;-64
2022/02/07 11:33:50;;;;;;;6.17;1.47;;;8.30;99.90;;;;;;5033711;28;20210;-64
2022/02/07 11:36:25;;;;;;;4.67;1.47;;;8.10;99.90;;;;;;5033692;28;20277;-64
2022/02/07 11:39:06;;;;;;;4.50;1.47;;;8.00;99.90;;;;;;5034909;28;20210;-65
2022/02/07 11:42:09;;;;;;;6.33;2.43;;;7.90;99.90;;;;;;5033599;28;20206;-64
2022/02/07 11:45:17;;;;;;;6.70;1.73;;;8.00;99.90;;;;;;5033323;28;20210;-65
2022/02/07 11:47:47;;;;;;;7.43;2.10;;;7.90;99.90;;;;;;5011432;28;20214;-65
2022/02/07 11:50:20;;;;;;;5.70;1.70;;;8.00;99.90;;;;;;5010412;28;20210;-65
2022/02/07 11:52:49;;;;;;;5.03;1.43;;;8.00;99.90;;;;;;5023233;28;20202;-65
2022/02/07 11:55:18;;;;;;;9.00;1.90;;;8.00;99.90;;;;;;5032770;28;20299;-64
2022/02/07 11:57:54;;;;;;;10.37;3.37;;;7.90;99.90;;;;;;5032921;28;20210;-64
2022/02/07 12:00:23;;;;;;;6.93;1.90;;;7.90;99.90;;;;;;5033400;28;20244;-64
2022/02/07 12:02:52;;;;;;;7.17;1.80;;;7.90;99.90;;;;;;5032748;28;20272;-63
2022/02/07 12:05:21;;;;;;;7.80;1.90;;;7.80;99.90;;;;;;5032882;28;20222;-63
2022/02/07 12:08:03;;;;;;;6.80;2.80;;;7.80;99.90;;;;;;5032728;28;20264;-62
2022/02/07 12:10:38;;;;;;;5.47;2.20;;;7.80;99.90;;;;;;5032662;28;20685;-64
2022/02/07 12:13:28;;;;;;;8.00;2.20;;;7.90;99.90;;;;;;5032657;28;20234;-63
2022/02/07 12:15:56;;;;;;;6.27;1.93;;;7.80;99.90;;;;;;5032215;28;20264;-62
2022/02/07 12:18:25;;;;;;;7.07;2.20;;;7.90;99.90;;;;;;5032692;28;20216;-64
2022/02/07 12:20:55;;;;;;;4.83;1.63;;;7.90;99.90;;;;;;5032385;28;20210;-64
2022/02/07 12:23:27;;;;;;;8.00;2.23;;;8.00;99.90;;;;;;5032702;28;20233;-65
2022/02/07 12:26:03;;;;;;;7.27;1.90;;;8.00;99.90;;;;;;5032074;28;20234;-65
2022/02/07 12:28:40;;;;;;;5.40;2.10;;;8.10;99.90;;;;;;5032322;28;20234;-63
2022/02/07 12:31:16;;;;;;;8.50;2.57;;;8.10;99.90;;;;;;5032131;28;20682;-64
2022/02/07 12:33:45;;;;;;;5.73;2.03;;;8.10;99.90;;;;;;5032286;28;20206;-64
2022/02/07 12:36:13;;;;;;;9.13;2.37;;;8.20;99.90;;;;;;5032104;28;20365;-64
2022/02/07 12:38:42;;;;;;;7.30;2.20;;;8.30;99.90;;;;;;5032170;28;20210;-64
2022/02/07 12:41:11;;;;;;;8.10;2.60;;;8.50;99.90;;;;;;5032252;28;20206;-64
2022/02/07 12:43:39;;;;;;;7.90;1.80;;;8.60;99.90;;;;;;5032124;28;20328;-64
2022/02/07 12:46:08;;;;;;;6.13;1.70;;;8.80;99.90;;;;;;5032084;28;20283;-64
2022/02/07 12:48:39;;;;;;;8.47;1.57;;;8.90;99.90;;;;;;5032214;28;20246;-64
2022/02/07 12:51:06;;;;;;;5.73;1.73;;;8.90;99.90;;;;;;5032133;28;20793;-64
2022/02/07 12:53:35;;;;;;;7.53;2.10;;;8.80;99.90;;;;;;5031969;28;20210;-64
2022/02/07 12:56:05;;;;;;;6.10;1.67;;;8.70;99.90;;;;;;5032396;28;20740;-66
2022/02/07 12:58:35;;;;;;;6.00;1.80;;;8.70;99.90;;;;;;5032039;28;20576;-64
2022/02/07 13:01:17;;;;;;;10.30;2.63;;;8.50;99.90;;;;;;5032162;28;20206;-66
2022/02/07 13:03:49;;;;;;;7.63;1.70;;;8.50;99.90;;;;;;5031825;28;20650;-65
2022/02/07 13:06:16;;;;;;;5.87;1.37;;;8.60;99.90;;;;;;5031911;28;20233;-64
2022/02/07 13:08:49;;;;;;;7.57;1.83;;;8.70;99.90;;;;;;5032027;28;20210;-64
2022/02/07 13:11:25;;;;;;;7.07;1.90;;;8.80;99.90;;;;;;5031983;28;20206;-64
2022/02/07 13:13:53;;;;;;;4.33;1.83;;;8.80;99.90;;;;;;5031915;28;20213;-64
2022/02/07 13:16:20;;;;;;;5.17;1.70;;;8.80;99.90;;;;;;5031370;28;20708;-64
2022/02/07 13:18:48;;;;;;;11.80;2.10;;;8.80;99.90;;;;;;5031636;28;20218;-64
2022/02/07 13:21:17;;;;;;;8.93;2.10;;;8.90;99.90;;;;;;5032082;28;20236;-64
2022/02/07 13:23:47;;;;;;;3.83;1.67;;;8.90;99.90;;;;;;5032255;28;20236;-64
2022/02/07 13:26:16;;;;;;;4.23;1.47;;;8.90;99.90;;;;;;5032355;28;20671;-65
2022/02/07 13:28:43;;;;;;;10.73;2.17;;;8.80;99.90;;;;;;5032057;28;20213;-64
2022/02/07 13:31:11;;;;;;;10.10;1.90;;;8.90;99.90;;;;;;5031978;28;20248;-65
2022/02/07 13:33:51;;;;;;;5.13;1.57;;;8.90;99.90;;;;;;5031972;28;20234;-64
2022/02/07 13:36:29;;;;;;;8.80;2.30;;;8.80;99.90;;;;;;5034246;28;20226;-64
2022/02/07 13:39:06;;;;;;;4.80;1.80;;;8.90;99.90;;;;;;5038945;28;20209;-65
2022/02/07 13:41:34;;;;;;;8.37;2.00;;;8.90;99.90;;;;;;5033951;28;20618;-65
2022/02/07 13:44:01;;;;;;;6.07;1.43;;;9.00;99.90;;;;;;5032046;28;20228;-64
2022/02/07 13:46:30;;;;;;;6.90;1.83;;;8.90;99.90;;;;;;5031580;28;20273;-64
2022/02/07 13:48:58;;;;;;;6.53;1.80;;;8.90;99.90;;;;;;5031427;28;20657;-63
2022/02/07 13:51:27;;;;;;;4.40;2.00;;;8.90;99.90;;;;;;5031608;28;20213;-64
2022/02/07 13:53:55;;;;;;;9.30;1.90;;;8.90;99.90;;;;;;5031312;28;20259;-64
2022/02/07 13:56:33;;;;;;;8.40;2.43;;;8.80;99.90;;;;;;5031236;28;20237;-64
2022/02/07 13:59:13;;;;;;;4.37;1.60;;;8.80;99.90;;;;;;5031762;28;20221;-64
2022/02/07 14:01:40;;;;;;;6.53;1.70;;;8.70;99.90;;;;;;5031402;28;20206;-64
2022/02/07 14:04:16;;;;;;;2.87;1.43;;;8.70;99.90;;;;;;5031504;28;20276;-64
2022/02/07 14:06:48;;;;;;;3.90;1.27;;;8.70;99.90;;;;;;5032098;28;20226;-66
2022/02/07 14:09:15;;;;;;;6.33;2.90;;;8.70;99.90;;;;;;5031974;28;20238;-64
2022/02/07 14:11:43;;;;;;;3.40;1.57;;;8.70;99.90;;;;;;5031176;28;20264;-64
2022/02/07 14:14:10;;;;;;;7.77;1.57;;;8.50;99.90;;;;;;5033736;28;20203;-63
2022/02/07 14:16:37;;;;;;;6.67;1.60;;;8.30;99.90;;;;;;5034673;28;20226;-66
2022/02/07 14:19:04;;;;;;;8.03;2.10;;;8.20;99.90;;;;;;5034974;28;20213;-64
2022/02/07 14:21:31;;;;;;;6.00;1.73;;;8.10;99.90;;;;;;5034871;28;20297;-65
2022/02/07 14:24:00;;;;;;;4.40;1.50;;;8.00;99.90;;;;;;5035157;28;20264;-65
2022/02/07 14:26:33;;;;;;;4.23;1.33;;;8.10;99.90;;;;;;5034399;28;20265;-65
2022/02/07 14:29:01;;;;;;;6.17;1.60;;;8.40;99.90;;;;;;5034577;28;20233;-65
2022/02/07 14:31:30;;;;;;;6.53;1.70;;;8.80;99.90;;;;;;5034924;28;20213;-65
2022/02/07 14:33:56;;;;;;;5.33;1.60;;;8.90;99.90;;;;;;5034706;28;20245;-65
2022/02/07 14:36:27;;;;;;;4.70;1.57;;;9.20;99.90;;;;;;5034182;28;20612;-66
2022/02/07 14:38:54;;;;;;;3.07;1.47;;;9.50;99.90;;;;;;5034640;28;20248;-65
2022/02/07 14:41:22;;;;;;;6.83;1.37;;;9.70;99.90;;;;;;5034477;28;20209;-65
2022/02/07 14:43:49;;;;;;;5.87;1.87;;;9.60;99.90;;;;;;5034161;28;20233;-65